createdAt,value
2022-09-05T00:00:04.137Z,84.77
2022-09-05T00:01:04.263Z,85.08
2022-09-05T00:02:04.418Z,84.94
2022-09-05T00:03:05.450Z,84.27
2022-09-05T00:04:14.951Z,84.03
2022-09-05T00:05:06.019Z,84.03
2022-09-05T00:06:05.262Z,83.93
2022-09-05T00:07:05.433Z,83.39
2022-09-05T00:08:05.555Z,83.08
2022-09-05T00:09:05.676Z,82.44
2022-09-05T00:10:06.786Z,81.73
2022-09-05T00:11:40.710Z,81.90
2022-09-05T00:12:07.145Z,81.15
2022-09-05T00:13:08.131Z,80.25
2022-09-05T00:14:06.562Z,79.94
2022-09-05T00:15:16.559Z,79.41
2022-09-05T00:16:08.326Z,79.21
2022-09-05T00:17:07.790Z,78.86
2022-09-05T00:20:40.753Z,78.77
2022-09-05T00:24:11.016Z,77.83
2022-09-05T00:24:28.844Z,76.58
2022-09-05T00:24:29.930Z,76.78
2022-09-05T00:24:31.148Z,77.52
2022-09-05T00:24:31.662Z,76.45
2022-09-05T00:24:36.939Z,76.38
2022-09-05T00:26:10.739Z,76.15
2022-09-05T00:27:08.850Z,75.45
2022-09-05T00:28:25.484Z,74.90
2022-09-05T00:29:10.179Z,74.90
2022-09-05T00:31:06.643Z,74.71
2022-09-05T00:31:55.346Z,74.51
2022-09-05T00:32:10.621Z,74.60
2022-09-05T00:33:16.974Z,74.77
2022-09-05T00:34:10.919Z,74.40
2022-09-05T00:35:10.803Z,74.27
2022-09-05T00:36:10.282Z,73.77
2022-09-05T00:37:11.294Z,73.86
2022-09-05T00:38:11.810Z,73.36
2022-09-05T00:39:10.808Z,73.57
2022-09-05T00:40:17.453Z,73.57
2022-09-05T00:41:12.304Z,73.16
2022-09-05T00:42:11.811Z,73.36
2022-09-05T00:43:11.428Z,73.57
2022-09-05T00:44:11.570Z,72.97
2022-09-05T00:45:14.575Z,72.97
2022-09-05T00:46:13.033Z,73.13
2022-09-05T00:47:12.150Z,73.13
2022-09-05T00:48:12.797Z,73.03
2022-09-05T00:49:12.435Z,73.23
2022-09-05T00:50:13.050Z,73.16
2022-09-05T00:51:13.300Z,73.36
2022-09-05T00:52:13.826Z,73.03
2022-09-05T00:53:13.045Z,72.93
2022-09-05T00:54:13.305Z,72.77
2022-09-05T00:55:14.300Z,72.83
2022-09-05T00:56:13.685Z,72.77
2022-09-05T00:57:14.991Z,72.63
2022-09-05T00:58:13.957Z,72.73
2022-09-05T00:59:14.108Z,72.73
2022-09-05T01:00:17.676Z,72.77
2022-09-05T01:01:20.846Z,73.23
2022-09-05T01:02:15.745Z,73.07
2022-09-05T01:03:14.894Z,73.03
2022-09-05T01:04:15.313Z,73.23
2022-09-05T01:05:15.809Z,72.97
2022-09-05T01:06:15.217Z,73.07
2022-09-05T01:07:16.306Z,73.07
2022-09-05T01:08:15.547Z,72.97
2022-09-05T01:09:15.719Z,72.97
2022-09-05T01:10:16.855Z,72.86
2022-09-05T01:11:17.078Z,73.47
2022-09-05T01:12:16.326Z,73.47
2022-09-05T01:13:16.459Z,73.16
2022-09-05T01:14:16.583Z,73.36
2022-09-05T01:15:16.719Z,73.16
2022-09-05T01:16:17.016Z,73.16
2022-09-05T01:17:17.110Z,73.27
2022-09-05T01:18:17.242Z,73.16
2022-09-05T01:19:17.372Z,73.40
2022-09-05T01:20:19.535Z,73.36
2022-09-05T01:21:17.666Z,73.16
2022-09-05T01:22:17.829Z,73.27
2022-09-05T01:23:17.968Z,73.57
2022-09-05T01:24:18.095Z,72.86
2022-09-05T01:25:19.328Z,73.36
2022-09-05T01:26:18.565Z,73.47
2022-09-05T01:27:18.728Z,73.27
2022-09-05T01:29:15.738Z,73.67
2022-09-05T01:29:20.178Z,72.86
2022-09-05T01:30:20.813Z,73.27
2022-09-05T01:31:19.604Z,72.97
2022-09-05T01:32:19.823Z,73.27
2022-09-05T01:33:19.903Z,72.97
2022-09-05T01:34:31.176Z,72.86
2022-09-05T01:35:21.833Z,72.56
2022-09-05T01:36:20.297Z,72.97
2022-09-05T01:37:26.562Z,72.66
2022-09-05T01:38:21.642Z,72.83
2022-09-05T01:40:11.819Z,72.83
2022-09-05T01:40:22.119Z,72.56
2022-09-05T01:41:21.881Z,72.86
2022-09-05T01:42:21.433Z,72.97
2022-09-05T01:43:21.660Z,72.66
2022-09-05T01:44:21.826Z,72.97
2022-09-05T01:45:23.880Z,72.86
2022-09-05T01:46:23.208Z,72.97
2022-09-05T01:47:31.096Z,72.77
2022-09-05T01:48:23.649Z,72.86
2022-09-05T01:49:22.703Z,73.36
2022-09-05T01:50:22.892Z,73.27
2022-09-05T01:51:29.561Z,73.07
2022-09-05T01:52:24.274Z,73.23
2022-09-05T01:53:24.573Z,73.27
2022-09-05T01:54:25.743Z,73.36
2022-09-05T01:55:24.744Z,73.36
2022-09-05T01:56:23.929Z,72.97
2022-09-05T01:57:24.098Z,73.36
2022-09-05T01:58:24.819Z,73.57
2022-09-05T01:59:24.492Z,73.57
2022-09-05T02:00:24.663Z,73.36
2022-09-05T02:01:32.360Z,73.07
2022-09-05T02:02:26.908Z,73.67
2022-09-05T02:03:26.001Z,73.57
2022-09-05T02:04:25.437Z,73.67
2022-09-05T02:05:48.236Z,73.86
2022-09-05T02:06:26.730Z,73.97
2022-09-05T02:07:30.797Z,73.67
2022-09-05T02:08:27.193Z,73.47
2022-09-05T02:09:26.292Z,73.57
2022-09-05T02:10:27.329Z,73.60
2022-09-05T02:11:35.461Z,74.17
2022-09-05T02:12:27.806Z,74.20
2022-09-05T02:13:26.924Z,74.47
2022-09-05T02:14:34.359Z,74.60
2022-09-05T02:15:28.425Z,74.60
2022-09-05T02:16:27.445Z,74.40
2022-09-05T02:17:51.199Z,74.51
2022-09-05T02:18:28.829Z,74.51
2022-09-05T02:19:28.061Z,74.20
2022-09-05T02:20:29.187Z,74.51
2022-09-05T02:21:28.432Z,75.07
2022-09-05T02:22:28.844Z,74.80
2022-09-05T02:23:40.627Z,74.90
2022-09-05T02:24:29.826Z,74.51
2022-09-05T02:26:00.724Z,74.71
2022-09-05T02:26:30.110Z,74.71
2022-09-05T02:27:46.130Z,74.71
2022-09-05T02:28:30.496Z,74.90
2022-09-05T02:29:30.042Z,74.60
2022-09-05T02:30:31.337Z,74.80
2022-09-05T02:31:30.049Z,74.60
2022-09-05T02:32:30.833Z,74.71
2022-09-05T02:33:30.247Z,74.71
2022-09-05T02:34:30.848Z,74.60
2022-09-05T02:35:30.610Z,74.51
2022-09-05T02:36:30.772Z,74.71
2022-09-05T02:39:24.071Z,74.51
2022-09-05T02:40:59.882Z,74.80
2022-09-05T02:45:00.260Z,74.67
2022-09-05T02:45:07.357Z,75.10
2022-09-05T02:45:09.926Z,74.71
2022-09-05T02:45:10.557Z,75.10
2022-09-05T02:45:10.981Z,75.10
2022-09-05T02:45:17.867Z,75.10
2022-09-05T02:45:33.699Z,75.10
2022-09-05T02:46:33.465Z,74.90
2022-09-05T02:47:32.815Z,74.71
2022-09-05T02:48:33.838Z,74.90
2022-09-05T02:51:04.162Z,74.90
2022-09-05T02:53:30.101Z,74.80
2022-09-05T02:55:58.787Z,74.60
2022-09-05T02:57:24.796Z,74.71
2022-09-05T02:57:40.615Z,74.71
2022-09-05T02:57:40.619Z,74.47
2022-09-05T02:57:43.080Z,74.51
2022-09-05T02:57:46.797Z,74.80
2022-09-05T02:58:05.586Z,74.80
2022-09-05T02:59:05.805Z,74.60
2022-09-05T02:59:37.030Z,74.71
2022-09-05T03:00:35.131Z,74.60
2022-09-05T03:01:35.374Z,74.57
2022-09-05T03:02:35.458Z,74.60
2022-09-05T03:03:35.736Z,74.60
2022-09-05T03:04:35.869Z,74.40
2022-09-05T03:05:36.108Z,74.40
2022-09-05T03:06:36.258Z,74.71
2022-09-05T03:07:36.363Z,74.80
2022-09-05T03:08:37.345Z,75.01
2022-09-05T03:09:36.703Z,74.90
2022-09-05T03:10:53.399Z,75.01
2022-09-05T03:11:38.360Z,74.90
2022-09-05T03:12:37.192Z,74.90
2022-09-05T03:13:37.360Z,74.90
2022-09-05T03:14:38.453Z,75.01
2022-09-05T03:15:37.663Z,74.60
2022-09-05T03:16:44.936Z,74.51
2022-09-05T03:17:39.119Z,74.80
2022-09-05T03:18:38.392Z,75.01
2022-09-05T03:19:46.243Z,74.90
2022-09-05T03:20:40.349Z,74.90
2022-09-05T03:21:38.944Z,75.01
2022-09-05T03:22:39.088Z,75.01
2022-09-05T03:23:39.241Z,75.01
2022-09-05T03:24:39.397Z,75.01
2022-09-05T03:25:40.347Z,74.80
2022-09-05T03:26:39.709Z,75.21
2022-09-05T03:27:40.870Z,74.90
2022-09-05T03:28:40.131Z,74.71
2022-09-05T03:29:40.854Z,75.01
2022-09-05T03:30:40.563Z,74.10
2022-09-05T03:31:40.729Z,74.51
2022-09-05T03:32:42.155Z,74.60
2022-09-05T03:33:41.087Z,74.90
2022-09-05T03:34:41.230Z,75.10
2022-09-05T03:35:42.360Z,74.51
2022-09-05T03:36:41.583Z,74.71
2022-09-05T03:37:41.765Z,74.51
2022-09-05T03:38:43.335Z,74.80
2022-09-05T03:39:43.902Z,74.51
2022-09-05T03:40:43.359Z,74.60
2022-09-05T03:41:42.606Z,74.60
2022-09-05T03:42:42.724Z,74.60
2022-09-05T03:43:43.856Z,75.01
2022-09-05T03:44:43.856Z,75.10
2022-09-05T03:45:43.367Z,74.60
2022-09-05T03:46:43.579Z,75.31
2022-09-05T03:47:44.359Z,75.10
2022-09-05T03:48:43.860Z,74.80
2022-09-05T03:55:52.840Z,74.90
2022-09-05T03:57:07.291Z,74.71
2022-09-05T03:57:08.773Z,75.10
2022-09-05T03:57:15.326Z,75.01
2022-09-05T03:57:18.915Z,75.01
2022-09-05T03:57:22.672Z,74.40
2022-09-05T03:57:23.883Z,74.51
2022-09-05T03:57:27.636Z,75.14
2022-09-05T03:57:46.645Z,75.14
2022-09-05T03:59:01.244Z,75.04
2022-09-05T03:59:48.103Z,75.01
2022-09-05T04:00:46.867Z,74.51
2022-09-05T04:03:23.619Z,74.51
2022-09-05T04:08:05.988Z,74.71
2022-09-05T04:08:17.614Z,74.60
2022-09-05T04:08:19.348Z,75.10
2022-09-05T04:08:24.860Z,74.60
2022-09-05T04:08:27.805Z,74.71
2022-09-05T04:08:31.291Z,74.60
2022-09-05T04:08:49.641Z,74.71
2022-09-05T04:09:51.463Z,74.51
2022-09-05T04:10:49.327Z,74.80
2022-09-05T04:11:48.867Z,74.71
2022-09-05T04:12:48.629Z,74.90
2022-09-05T04:13:48.776Z,74.90
2022-09-05T04:14:48.919Z,74.51
2022-09-05T04:15:53.451Z,74.80
2022-09-05T04:16:49.332Z,74.60
2022-09-05T04:17:49.521Z,74.71
2022-09-05T04:18:49.666Z,74.80
2022-09-05T04:19:50.841Z,75.31
2022-09-05T04:20:50.005Z,74.90
2022-09-05T04:21:50.169Z,75.10
2022-09-05T04:22:50.313Z,74.90
2022-09-05T04:23:50.466Z,75.04
2022-09-05T04:24:50.644Z,75.01
2022-09-05T04:25:50.882Z,74.54
2022-09-05T04:26:52.015Z,74.54
2022-09-05T04:27:51.876Z,75.04
2022-09-05T04:28:53.515Z,74.84
2022-09-05T04:29:51.461Z,75.01
2022-09-05T04:30:52.378Z,74.84
2022-09-05T04:32:07.421Z,74.71
2022-09-05T04:32:54.767Z,74.51
2022-09-05T04:33:53.874Z,75.14
2022-09-05T04:34:52.363Z,74.94
2022-09-05T04:35:52.539Z,75.14
2022-09-05T04:36:53.376Z,75.04
2022-09-05T04:37:52.941Z,74.64
2022-09-05T04:38:53.122Z,74.94
2022-09-05T04:39:54.008Z,74.94
2022-09-05T04:40:53.522Z,75.24
2022-09-05T04:41:53.695Z,75.24
2022-09-05T04:42:53.845Z,75.04
2022-09-05T04:43:54.881Z,75.04
2022-09-05T04:44:55.860Z,75.38
2022-09-05T04:45:54.583Z,75.04
2022-09-05T04:46:55.376Z,75.24
2022-09-05T04:47:55.375Z,75.24
2022-09-05T04:48:55.022Z,75.34
2022-09-05T04:49:55.176Z,74.64
2022-09-05T04:50:55.367Z,75.04
2022-09-05T04:52:00.253Z,74.54
2022-09-05T04:52:56.738Z,74.74
2022-09-05T04:53:55.988Z,74.94
2022-09-05T04:54:56.127Z,75.04
2022-09-05T04:55:56.270Z,74.84
2022-09-05T04:56:57.387Z,75.14
2022-09-05T04:57:57.383Z,75.34
2022-09-05T04:59:55.307Z,75.34
2022-09-05T05:05:58.189Z,74.88
2022-09-05T05:06:00.912Z,75.08
2022-09-05T05:06:11.229Z,74.74
2022-09-05T05:06:14.654Z,74.94
2022-09-05T05:06:16.665Z,74.84
2022-09-05T05:06:16.910Z,74.98
2022-09-05T05:06:31.535Z,74.74
2022-09-05T05:07:06.072Z,74.74
2022-09-05T05:08:00.542Z,74.74
2022-09-05T05:08:58.733Z,74.64
2022-09-05T05:11:10.240Z,74.54
2022-09-05T05:15:00.100Z,74.04
2022-09-05T05:17:55.747Z,74.44
2022-09-05T05:17:55.923Z,74.84
2022-09-05T05:18:01.817Z,74.54
2022-09-05T05:18:07.470Z,74.24
2022-09-05T05:18:08.954Z,74.74
2022-09-05T05:18:13.565Z,74.74
2022-09-05T05:18:42.391Z,73.74
2022-09-05T05:19:07.232Z,73.74
2022-09-05T05:20:42.840Z,74.04
2022-09-05T05:21:02.009Z,73.80
2022-09-05T05:22:01.180Z,73.70
2022-09-05T05:23:07.994Z,73.50
2022-09-05T05:24:02.523Z,73.10
2022-09-05T05:25:02.394Z,73.60
2022-09-05T05:26:01.987Z,73.50
2022-09-05T05:27:02.145Z,73.50
2022-09-05T05:28:02.890Z,73.50
2022-09-05T05:29:03.489Z,73.36
2022-09-05T05:30:02.717Z,73.40
2022-09-05T05:31:02.859Z,73.50
2022-09-05T05:32:03.076Z,73.00
2022-09-05T05:33:03.202Z,73.20
2022-09-05T05:34:03.879Z,73.20
2022-09-05T05:35:03.471Z,72.86
2022-09-05T05:36:03.612Z,72.97
2022-09-05T05:37:03.904Z,72.36
2022-09-05T05:38:03.903Z,72.27
2022-09-05T05:39:04.903Z,72.16
2022-09-05T05:40:04.333Z,72.27
2022-09-05T05:41:04.909Z,72.06
2022-09-05T05:42:20.273Z,71.96
2022-09-05T05:43:06.396Z,71.77
2022-09-05T05:44:05.026Z,71.93
2022-09-05T05:45:05.202Z,71.73
2022-09-05T05:46:08.317Z,71.63
2022-09-05T05:47:05.918Z,71.23
2022-09-05T05:48:06.401Z,71.43
2022-09-05T05:49:05.795Z,71.23
2022-09-05T05:50:11.309Z,71.30
2022-09-05T05:51:07.095Z,70.73
2022-09-05T05:52:06.413Z,71.00
2022-09-05T05:53:06.919Z,71.00
2022-09-05T05:54:06.586Z,70.39
2022-09-05T05:55:50.184Z,70.69
2022-09-05T05:56:07.924Z,70.29
2022-09-05T05:57:10.156Z,70.59
2022-09-05T05:58:08.899Z,70.26
2022-09-05T05:59:07.414Z,69.66
2022-09-05T06:00:07.633Z,69.82
2022-09-05T06:01:09.459Z,69.46
2022-09-05T06:02:08.978Z,69.23
2022-09-05T06:03:25.852Z,69.32
2022-09-05T06:04:09.147Z,68.93
2022-09-05T06:05:08.276Z,68.82
2022-09-05T06:06:08.426Z,68.39
2022-09-05T06:07:09.960Z,68.69
2022-09-05T06:09:18.397Z,68.39
2022-09-05T06:14:49.155Z,67.99
2022-09-05T06:14:49.679Z,68.19
2022-09-05T06:14:51.352Z,68.19
2022-09-05T06:14:55.064Z,68.16
2022-09-05T06:14:57.619Z,67.96
2022-09-05T06:15:03.988Z,68.16
2022-09-05T06:15:14.161Z,68.06
2022-09-05T06:16:12.303Z,68.16
2022-09-05T06:17:10.419Z,68.16
2022-09-05T06:18:10.562Z,68.16
2022-09-05T06:19:11.744Z,67.72
2022-09-05T06:21:35.955Z,67.16
2022-09-05T06:22:10.358Z,67.53
2022-09-05T06:22:15.002Z,67.26
2022-09-05T06:23:28.841Z,67.13
2022-09-05T06:24:12.553Z,66.93
2022-09-05T06:25:16.655Z,66.73
2022-09-05T06:26:12.795Z,66.73
2022-09-05T06:27:11.931Z,66.83
2022-09-05T06:28:19.545Z,66.73
2022-09-05T06:29:13.329Z,66.93
2022-09-05T06:30:12.448Z,66.73
2022-09-05T06:31:29.499Z,66.93
2022-09-05T06:32:14.479Z,66.73
2022-09-05T06:33:12.855Z,66.93
2022-09-05T06:34:30.907Z,66.33
2022-09-05T06:35:14.936Z,66.33
2022-09-05T06:36:13.445Z,66.50
2022-09-05T06:37:13.607Z,65.90
2022-09-05T06:38:13.935Z,66.06
2022-09-05T06:39:14.924Z,65.37
2022-09-05T06:40:14.181Z,65.53
2022-09-05T06:41:14.326Z,64.71
2022-09-05T06:42:26.812Z,64.90
2022-09-05T06:43:15.928Z,64.37
2022-09-05T06:44:14.773Z,64.07
2022-09-05T06:45:27.516Z,63.65
2022-09-05T06:46:24.134Z,62.62
2022-09-05T06:47:23.975Z,61.60
2022-09-05T06:48:23.863Z,62.52
2022-09-05T06:49:29.736Z,62.62
2022-09-05T06:50:27.241Z,63.15
2022-09-05T06:51:17.084Z,63.45
2022-09-05T06:52:29.368Z,63.95
2022-09-05T06:53:20.058Z,63.75
2022-09-05T06:54:16.595Z,64.25
2022-09-05T06:55:16.727Z,64.15
2022-09-05T06:56:25.405Z,63.95
2022-09-05T06:57:18.015Z,62.46
2022-09-05T06:58:17.159Z,60.98
2022-09-05T06:59:17.937Z,59.23
2022-09-05T07:00:21.739Z,58.19
2022-09-05T07:01:17.761Z,57.17
2022-09-05T07:02:18.506Z,58.32
2022-09-05T07:03:19.010Z,58.51
2022-09-05T07:05:14.591Z,58.44
2022-09-05T07:05:37.489Z,58.72
2022-09-05T07:06:20.393Z,57.27
2022-09-05T07:07:18.651Z,56.45
2022-09-05T07:08:34.918Z,56.05
2022-09-05T07:09:20.010Z,57.50
2022-09-05T07:10:37.386Z,57.89
2022-09-05T07:11:22.431Z,57.54
2022-09-05T07:12:20.428Z,56.24
2022-09-05T07:13:19.913Z,53.96
2022-09-05T07:14:19.936Z,52.63
2022-09-05T07:15:20.631Z,50.49
2022-09-05T07:16:26.636Z,48.86
2022-09-05T07:17:21.939Z,48.91
2022-09-05T07:18:21.431Z,47.32
2022-09-05T07:19:20.754Z,47.34
2022-09-05T07:22:44.527Z,50.34
2022-09-05T07:22:53.793Z,51.03
2022-09-05T07:24:09.849Z,51.47
2022-09-05T07:24:55.600Z,53.33
2022-09-05T07:25:53.802Z,53.64
2022-09-05T07:26:54.595Z,54.36
2022-09-05T07:28:29.223Z,53.87
2022-09-05T07:28:55.389Z,54.39
2022-09-05T07:30:01.214Z,55.24
2022-09-05T07:30:55.742Z,55.76
2022-09-05T07:31:55.025Z,56.28
2022-09-05T07:32:55.150Z,57.10
2022-09-05T07:33:55.928Z,56.90
2022-09-05T07:34:55.557Z,56.51
2022-09-05T07:35:56.430Z,56.11
2022-09-05T07:37:13.829Z,55.76
2022-09-05T07:37:57.183Z,55.66
2022-09-05T07:39:12.216Z,55.98
2022-09-05T07:39:58.582Z,56.80
2022-09-05T07:40:57.750Z,56.93
2022-09-05T07:41:57.453Z,56.53
2022-09-05T07:43:09.034Z,56.53
2022-09-05T07:43:58.348Z,58.04
2022-09-05T07:44:57.460Z,58.34
2022-09-05T07:45:58.478Z,58.12
2022-09-05T07:46:57.741Z,57.25
2022-09-05T07:47:57.863Z,57.42
2022-09-05T07:48:58.034Z,57.72
2022-09-05T07:53:40.894Z,56.60
2022-09-05T07:56:47.272Z,56.51
2022-09-05T07:56:52.991Z,56.73
2022-09-05T07:56:56.184Z,56.13
2022-09-05T07:56:56.297Z,56.51
2022-09-05T07:57:00.085Z,56.83
2022-09-05T07:57:10.066Z,56.13
2022-09-05T07:57:31.965Z,56.11
2022-09-05T07:58:02.443Z,56.40
2022-09-05T07:58:59.951Z,56.30
2022-09-05T08:00:00.942Z,56.30
2022-09-05T08:01:00.393Z,55.98
2022-09-05T08:02:01.444Z,56.18
2022-09-05T08:03:00.959Z,55.96
2022-09-05T08:04:05.689Z,54.47
2022-09-05T08:05:02.030Z,54.27
2022-09-05T08:06:01.112Z,54.14
2022-09-05T08:07:46.879Z,53.60
2022-09-05T08:08:02.512Z,52.88
2022-09-05T08:09:21.397Z,51.37
2022-09-05T08:10:06.406Z,50.36
2022-09-05T08:11:22.800Z,49.03
2022-09-05T08:12:09.793Z,47.53
2022-09-05T08:13:23.993Z,47.75
2022-09-05T08:14:40.434Z,49.08
2022-09-05T08:15:03.783Z,49.60
2022-09-05T08:16:13.707Z,50.46
2022-09-05T08:17:04.088Z,50.48
2022-09-05T08:18:03.186Z,50.98
2022-09-05T08:19:03.389Z,51.92
2022-09-05T08:20:08.623Z,52.86
2022-09-05T08:21:03.832Z,54.35
2022-09-05T08:22:03.977Z,53.55
2022-09-05T08:23:04.948Z,53.16
2022-09-05T08:24:06.993Z,53.45
2022-09-05T08:25:05.447Z,53.35
2022-09-05T08:26:04.592Z,53.45
2022-09-05T08:27:04.802Z,53.65
2022-09-05T08:28:05.940Z,53.25
2022-09-05T08:29:05.070Z,54.02
2022-09-05T08:30:25.001Z,53.33
2022-09-05T08:31:06.442Z,53.33
2022-09-05T08:32:05.589Z,52.81
2022-09-05T08:33:11.358Z,51.37
2022-09-05T08:34:06.965Z,51.10
2022-09-05T08:35:06.104Z,51.20
2022-09-05T08:36:06.295Z,51.32
2022-09-05T08:37:06.483Z,51.97
2022-09-05T08:38:06.634Z,52.86
2022-09-05T08:39:06.821Z,52.96
2022-09-05T08:40:10.970Z,53.25
2022-09-05T08:41:07.133Z,53.35
2022-09-05T08:42:07.966Z,52.93
2022-09-05T08:46:36.771Z,52.64
2022-09-05T08:46:41.707Z,53.35
2022-09-05T08:46:43.350Z,53.16
2022-09-05T08:46:47.106Z,53.25
2022-09-05T08:47:09.160Z,52.93
2022-09-05T08:48:08.231Z,52.96
2022-09-05T08:49:12.355Z,53.65
2022-09-05T08:50:10.465Z,52.86
2022-09-05T08:51:08.748Z,53.16
2022-09-05T08:52:08.962Z,53.95
2022-09-05T08:53:18.691Z,53.38
2022-09-05T08:54:10.960Z,53.75
2022-09-05T08:55:09.444Z,53.35
2022-09-05T08:56:09.604Z,53.25
2022-09-05T08:57:09.764Z,53.13
2022-09-05T08:58:10.508Z,53.03
2022-09-05T08:59:32.142Z,52.54
2022-09-05T09:00:20.265Z,52.54
2022-09-05T09:01:12.022Z,53.11
2022-09-05T09:02:47.378Z,52.44
2022-09-05T09:03:11.983Z,52.22
2022-09-05T09:04:11.970Z,52.12
2022-09-05T09:05:14.291Z,52.22
2022-09-05T09:06:14.951Z,52.01
2022-09-05T09:07:47.107Z,52.51
2022-09-05T09:08:15.838Z,52.51
2022-09-05T09:09:11.989Z,52.78
2022-09-05T09:10:12.999Z,52.06
2022-09-05T09:11:13.481Z,51.37
2022-09-05T09:12:12.501Z,51.25
2022-09-05T09:13:12.656Z,50.98
2022-09-05T09:14:14.869Z,50.38
2022-09-05T09:15:14.944Z,50.38
2022-09-05T09:16:13.097Z,49.89
2022-09-05T09:17:13.310Z,50.71
2022-09-05T09:18:13.972Z,50.51
2022-09-05T09:19:14.497Z,51.52
2022-09-05T09:20:13.822Z,51.40
2022-09-05T09:21:14.476Z,51.10
2022-09-05T09:22:14.488Z,50.68
2022-09-05T09:23:32.356Z,49.82
2022-09-05T09:24:14.437Z,50.31
2022-09-05T09:25:16.610Z,50.63
2022-09-05T09:26:15.477Z,49.94
2022-09-05T09:27:14.987Z,50.83
2022-09-05T09:28:48.150Z,51.42
2022-09-05T09:29:16.980Z,51.20
2022-09-05T09:30:15.460Z,50.41
2022-09-05T09:31:15.669Z,50.73
2022-09-05T09:32:16.478Z,51.07
2022-09-05T09:33:16.013Z,51.25
2022-09-05T09:34:16.482Z,50.26
2022-09-05T09:35:16.357Z,49.84
2022-09-05T09:36:16.500Z,49.77
2022-09-05T09:37:16.630Z,50.66
2022-09-05T09:38:16.829Z,49.72
2022-09-05T09:39:38.398Z,47.60
2022-09-05T09:40:18.129Z,47.91
2022-09-05T09:41:17.493Z,48.26
2022-09-05T09:42:32.273Z,49.57
2022-09-05T09:43:18.730Z,50.48
2022-09-05T09:44:17.995Z,50.60
2022-09-05T09:45:23.044Z,50.71
2022-09-05T09:46:19.418Z,49.89
2022-09-05T09:47:18.522Z,49.07
2022-09-05T09:48:18.641Z,48.88
2022-09-05T09:49:23.395Z,49.47
2022-09-05T09:50:18.982Z,49.89
2022-09-05T09:51:19.153Z,50.58
2022-09-05T09:52:21.301Z,51.37
2022-09-05T09:53:19.584Z,51.60
2022-09-05T09:54:19.792Z,52.12
2022-09-05T09:55:21.224Z,51.92
2022-09-05T09:56:21.220Z,51.99
2022-09-05T09:57:20.421Z,49.40
2022-09-05T09:58:20.717Z,49.59
2022-09-05T09:59:20.754Z,48.77
2022-09-05T10:00:20.932Z,48.77
2022-09-05T10:01:36.078Z,47.56
2022-09-05T10:04:01.288Z,48.38
2022-09-05T10:07:36.832Z,47.86
2022-09-05T10:10:32.452Z,48.55
2022-09-05T10:10:33.790Z,48.55
2022-09-05T10:10:46.651Z,47.66
2022-09-05T10:10:49.222Z,47.66
2022-09-05T10:10:53.338Z,47.74
2022-09-05T10:10:55.575Z,47.56
2022-09-05T10:10:56.270Z,47.74
2022-09-05T10:11:52.035Z,47.69
2022-09-05T10:13:25.563Z,48.80
2022-09-05T10:14:45.032Z,49.71
2022-09-05T10:15:31.586Z,48.60
2022-09-05T10:16:24.778Z,47.69
2022-09-05T10:17:23.949Z,47.47
2022-09-05T10:18:24.506Z,45.45
2022-09-05T10:20:07.987Z,45.15
2022-09-05T10:20:29.485Z,45.94
2022-09-05T10:21:25.631Z,45.76
2022-09-05T10:22:40.086Z,45.05
2022-09-05T10:23:27.037Z,44.75
2022-09-05T10:24:26.144Z,44.56
2022-09-05T10:25:27.908Z,44.43
2022-09-05T10:26:27.513Z,43.52
2022-09-05T10:27:25.600Z,43.05
2022-09-05T10:28:25.743Z,43.13
2022-09-05T10:29:36.960Z,42.93
2022-09-05T10:30:51.678Z,44.64
2022-09-05T10:33:54.104Z,44.98
2022-09-05T10:34:35.769Z,44.39
2022-09-05T10:35:16.836Z,44.69
2022-09-05T10:35:21.222Z,44.59
2022-09-05T10:35:29.524Z,44.76
2022-09-05T10:36:27.375Z,44.18
2022-09-05T10:37:27.583Z,44.94
2022-09-05T10:38:28.502Z,44.23
2022-09-05T10:39:28.047Z,44.23
2022-09-05T10:40:28.149Z,43.37
2022-09-05T10:41:28.328Z,43.98
2022-09-05T10:42:29.016Z,44.55
2022-09-05T10:43:29.508Z,44.53
2022-09-05T10:44:29.013Z,44.13
2022-09-05T10:45:33.426Z,44.21
2022-09-05T10:46:51.752Z,43.01
2022-09-05T10:47:32.083Z,44.19
2022-09-05T10:48:30.049Z,43.01
2022-09-05T10:49:30.688Z,42.99
2022-09-05T10:50:30.028Z,43.16
2022-09-05T10:51:30.086Z,43.04
2022-09-05T10:52:30.257Z,42.25
2022-09-05T10:53:39.565Z,42.63
2022-09-05T10:54:31.583Z,40.37
2022-09-05T10:55:30.719Z,38.72
2022-09-05T10:56:30.873Z,38.95
2022-09-05T10:57:32.011Z,39.07
2022-09-05T11:02:04.704Z,39.37
2022-09-05T11:02:15.950Z,39.48
2022-09-05T11:02:20.876Z,39.39
2022-09-05T11:02:29.925Z,40.05
2022-09-05T11:02:38.240Z,39.25
2022-09-05T11:03:34.153Z,40.08
2022-09-05T11:04:33.034Z,40.69
2022-09-05T11:05:33.589Z,41.86
2022-09-05T11:06:33.520Z,42.08
2022-09-05T11:07:32.916Z,42.18
2022-09-05T11:08:33.079Z,42.26
2022-09-05T11:09:34.018Z,41.47
2022-09-05T11:10:33.404Z,41.38
2022-09-05T11:11:34.701Z,42.22
2022-09-05T11:12:33.793Z,39.74
2022-09-05T11:13:34.037Z,40.11
2022-09-05T11:14:35.027Z,39.21
2022-09-05T11:15:34.370Z,39.40
2022-09-05T11:16:35.048Z,40.21
2022-09-05T11:17:35.522Z,40.05
2022-09-05T11:18:56.284Z,40.45
2022-09-05T11:19:36.025Z,39.97
2022-09-05T11:20:35.953Z,41.59
2022-09-05T11:21:35.305Z,41.31
2022-09-05T11:22:35.483Z,41.51
2022-09-05T11:23:36.523Z,42.30
2022-09-05T11:24:35.793Z,43.09
2022-09-05T11:25:40.026Z,42.65
2022-09-05T11:26:36.076Z,41.75
2022-09-05T11:27:37.028Z,41.14
2022-09-05T11:28:37.745Z,40.84
2022-09-05T11:29:37.662Z,39.86
2022-09-05T11:30:38.664Z,40.29
2022-09-05T11:32:22.435Z,40.70
2022-09-05T11:34:09.395Z,41.22
2022-09-05T11:36:11.785Z,41.63
2022-09-05T11:39:52.305Z,43.35
2022-09-05T11:39:54.160Z,42.50
2022-09-05T11:39:58.053Z,42.91
2022-09-05T11:39:59.172Z,43.05
2022-09-05T11:40:04.007Z,43.35
2022-09-05T11:40:07.645Z,42.34
2022-09-05T11:40:59.157Z,43.65
2022-09-05T11:41:41.195Z,43.13
2022-09-05T11:42:39.337Z,42.56
2022-09-05T11:43:40.034Z,42.61
2022-09-05T11:44:39.719Z,42.30
2022-09-05T11:45:39.885Z,41.61
2022-09-05T11:46:40.080Z,41.78
2022-09-05T11:47:44.361Z,41.20
2022-09-05T11:48:43.186Z,40.78
2022-09-05T11:49:41.703Z,40.00
2022-09-05T11:50:40.824Z,40.58
2022-09-05T11:51:41.539Z,40.61
2022-09-05T11:52:41.186Z,41.02
2022-09-05T11:53:41.428Z,41.95
2022-09-05T11:54:42.052Z,41.87
2022-09-05T11:55:41.826Z,42.56
2022-09-05T11:56:45.675Z,42.76
2022-09-05T11:57:42.202Z,42.46
2022-09-05T11:58:44.793Z,42.85
2022-09-05T11:59:44.940Z,42.66
2022-09-05T12:00:42.639Z,43.47
2022-09-05T12:01:44.109Z,43.47
2022-09-05T12:02:44.070Z,42.48
2022-09-05T12:03:59.236Z,42.68
2022-09-05T12:04:44.547Z,42.60
2022-09-05T12:05:50.592Z,43.10
2022-09-05T12:06:48.105Z,42.58
2022-09-05T12:07:45.033Z,42.68
2022-09-05T12:08:44.542Z,42.58
2022-09-05T12:09:44.341Z,43.77
2022-09-05T12:10:47.865Z,43.74
2022-09-05T12:11:45.570Z,43.31
2022-09-05T12:12:45.545Z,42.50
2022-09-05T12:13:45.101Z,40.90
2022-09-05T12:14:49.400Z,41.35
2022-09-05T12:16:07.324Z,40.64
2022-09-05T12:16:46.630Z,40.82
2022-09-05T12:17:45.794Z,41.00
2022-09-05T12:18:45.976Z,39.21
2022-09-05T12:19:46.130Z,38.62
2022-09-05T12:20:47.048Z,38.72
2022-09-05T12:21:46.575Z,38.44
2022-09-05T12:22:46.790Z,38.74
2022-09-05T12:24:24.230Z,38.74
2022-09-05T12:25:25.414Z,38.24
2022-09-05T12:27:37.123Z,38.66
2022-09-05T12:27:40.033Z,38.46
2022-09-05T12:27:55.829Z,38.95
2022-09-05T12:29:29.306Z,38.85
2022-09-05T12:29:52.150Z,38.64
2022-09-05T12:31:07.155Z,38.32
2022-09-05T12:33:11.418Z,38.32
2022-09-05T12:35:46.991Z,37.87
2022-09-05T12:36:06.056Z,38.87
2022-09-05T12:36:06.284Z,39.28
2022-09-05T12:36:08.276Z,38.99
2022-09-05T12:40:38.458Z,39.07
2022-09-05T12:40:54.996Z,39.47
2022-09-05T12:40:55.324Z,39.79
2022-09-05T12:41:01.155Z,39.31
2022-09-05T12:41:42.755Z,39.40
2022-09-05T12:42:09.877Z,38.89
2022-09-05T12:42:55.967Z,38.30
2022-09-05T12:44:36.787Z,38.30
2022-09-05T12:44:52.071Z,38.79
2022-09-05T12:46:50.930Z,39.17
2022-09-05T12:47:51.119Z,39.17
2022-09-05T12:48:52.060Z,38.99
2022-09-05T12:49:52.198Z,40.08
2022-09-05T12:50:52.059Z,40.66
2022-09-05T12:51:52.562Z,40.17
2022-09-05T12:52:51.991Z,40.29
2022-09-05T12:53:52.169Z,40.78
2022-09-05T12:54:56.538Z,40.88
2022-09-05T12:56:12.095Z,41.47
2022-09-05T13:00:43.860Z,41.38
2022-09-05T13:02:55.185Z,41.17
2022-09-05T13:02:56.792Z,42.36